sensor_id;sensor_type;location;lat;lon;timestamp;P1;durP1;ratioP1;P2;durP2;ratioP2
60016;SDS011;45869;52.698;6.210;2023-07-16T00:00:15;9.50;;;1.92;;
60016;SDS011;45869;52.698;6.210;2023-07-16T00:02:44;4.28;;;1.50;;
60016;SDS011;45869;52.698;6.210;2023-07-16T00:05:10;9.07;;;1.85;;
60016;SDS011;45869;52.698;6.210;2023-07-16T00:07:39;6.80;;;2.20;;
60016;SDS011;45869;52.698;6.210;2023-07-16T00:10:05;10.60;;;2.10;;
60016;SDS011;45869;52.698;6.210;2023-07-16T00:12:31;5.50;;;1.73;;
60016;SDS011;45869;52.698;6.210;2023-07-16T00:14:57;6.35;;;2.10;;
60016;SDS011;45869;52.698;6.210;2023-07-16T00:17:23;7.63;;;2.10;;
60016;SDS011;45869;52.698;6.210;2023-07-16T00:19:49;5.30;;;1.92;;
60016;SDS011;45869;52.698;6.210;2023-07-16T00:22:18;8.40;;;1.83;;
60016;SDS011;45869;52.698;6.210;2023-07-16T00:24:44;8.05;;;1.75;;
60016;SDS011;45869;52.698;6.210;2023-07-16T00:27:10;6.97;;;1.60;;
60016;SDS011;45869;52.698;6.210;2023-07-16T00:29:39;7.25;;;1.70;;
60016;SDS011;45869;52.698;6.210;2023-07-16T00:32:05;6.65;;;1.77;;
60016;SDS011;45869;52.698;6.210;2023-07-16T00:34:31;4.95;;;1.63;;
60016;SDS011;45869;52.698;6.210;2023-07-16T00:36:57;7.68;;;1.65;;
60016;SDS011;45869;52.698;6.210;2023-07-16T00:39:27;7.00;;;2.05;;
60016;SDS011;45869;52.698;6.210;2023-07-16T00:41:53;6.38;;;1.85;;
60016;SDS011;45869;52.698;6.210;2023-07-16T00:44:19;5.93;;;1.67;;
60016;SDS011;45869;52.698;6.210;2023-07-16T00:46:45;5.80;;;1.85;;
60016;SDS011;45869;52.698;6.210;2023-07-16T00:49:12;6.85;;;1.70;;
60016;SDS011;45869;52.698;6.210;2023-07-16T00:51:44;8.45;;;1.60;;
60016;SDS011;45869;52.698;6.210;2023-07-16T00:54:10;7.22;;;1.70;;
60016;SDS011;45869;52.698;6.210;2023-07-16T00:56:37;6.22;;;2.05;;
60016;SDS011;45869;52.698;6.210;2023-07-16T00:59:03;7.25;;;1.70;;
60016;SDS011;45869;52.698;6.210;2023-07-16T01:01:29;5.32;;;1.73;;
60016;SDS011;45869;52.698;6.210;2023-07-16T01:03:55;7.40;;;2.25;;
60016;SDS011;45869;52.698;6.210;2023-07-16T01:06:34;10.23;;;2.17;;
60016;SDS011;45869;52.698;6.210;2023-07-16T01:09:02;6.85;;;2.47;;
60016;SDS011;45869;52.698;6.210;2023-07-16T01:11:28;8.27;;;2.35;;
60016;SDS011;45869;52.698;6.210;2023-07-16T01:13:58;7.00;;;2.47;;
60016;SDS011;45869;52.698;6.210;2023-07-16T01:16:24;5.88;;;2.05;;
60016;SDS011;45869;52.698;6.210;2023-07-16T01:18:54;5.43;;;2.22;;
60016;SDS011;45869;52.698;6.210;2023-07-16T01:21:20;5.18;;;2.20;;
60016;SDS011;45869;52.698;6.210;2023-07-16T01:31:33;6.10;;;2.28;;
60016;SDS011;45869;52.698;6.210;2023-07-16T01:33:59;6.65;;;2.80;;
60016;SDS011;45869;52.698;6.210;2023-07-16T01:36:26;6.15;;;2.25;;
60016;SDS011;45869;52.698;6.210;2023-07-16T01:38:53;7.28;;;2.50;;
60016;SDS011;45869;52.698;6.210;2023-07-16T01:41:19;6.88;;;2.80;;
60016;SDS011;45869;52.698;6.210;2023-07-16T01:43:45;7.32;;;2.65;;
60016;SDS011;45869;52.698;6.210;2023-07-16T01:46:11;9.02;;;2.80;;
60016;SDS011;45869;52.698;6.210;2023-07-16T01:48:38;7.85;;;2.67;;
60016;SDS011;45869;52.698;6.210;2023-07-16T01:51:04;6.95;;;2.60;;
60016;SDS011;45869;52.698;6.210;2023-07-16T01:53:30;6.63;;;2.90;;
60016;SDS011;45869;52.698;6.210;2023-07-16T01:55:57;6.70;;;2.53;;
60016;SDS011;45869;52.698;6.210;2023-07-16T01:58:23;8.90;;;3.20;;
60016;SDS011;45869;52.698;6.210;2023-07-16T02:00:50;8.32;;;3.63;;
60016;SDS011;45869;52.698;6.210;2023-07-16T02:03:16;8.60;;;2.90;;
60016;SDS011;45869;52.698;6.210;2023-07-16T02:05:42;6.28;;;2.78;;
60016;SDS011;45869;52.698;6.210;2023-07-16T02:08:08;7.10;;;2.67;;
60016;SDS011;45869;52.698;6.210;2023-07-16T02:10:34;6.95;;;2.63;;
60016;SDS011;45869;52.698;6.210;2023-07-16T02:13:00;8.30;;;2.90;;
60016;SDS011;45869;52.698;6.210;2023-07-16T02:15:26;8.98;;;2.70;;
60016;SDS011;45869;52.698;6.210;2023-07-16T02:17:52;6.95;;;2.88;;
60016;SDS011;45869;52.698;6.210;2023-07-16T02:20:18;9.70;;;2.83;;
60016;SDS011;45869;52.698;6.210;2023-07-16T02:22:44;8.52;;;3.00;;
60016;SDS011;45869;52.698;6.210;2023-07-16T02:25:10;7.90;;;3.00;;
60016;SDS011;45869;52.698;6.210;2023-07-16T02:27:37;8.02;;;2.53;;
60016;SDS011;45869;52.698;6.210;2023-07-16T02:30:03;13.40;;;6.28;;
60016;SDS011;45869;52.698;6.210;2023-07-16T02:32:30;20.85;;;11.60;;
60016;SDS011;45869;52.698;6.210;2023-07-16T02:34:56;18.40;;;11.88;;
60016;SDS011;45869;52.698;6.210;2023-07-16T02:37:22;9.45;;;4.18;;
60016;SDS011;45869;52.698;6.210;2023-07-16T02:39:48;9.43;;;4.03;;
60016;SDS011;45869;52.698;6.210;2023-07-16T02:42:14;13.35;;;7.10;;
60016;SDS011;45869;52.698;6.210;2023-07-16T02:44:41;10.60;;;3.60;;
60016;SDS011;45869;52.698;6.210;2023-07-16T02:47:09;8.82;;;4.07;;
60016;SDS011;45869;52.698;6.210;2023-07-16T02:49:35;8.60;;;4.63;;
60016;SDS011;45869;52.698;6.210;2023-07-16T02:52:05;9.20;;;3.55;;
60016;SDS011;45869;52.698;6.210;2023-07-16T02:54:32;8.02;;;3.20;;
60016;SDS011;45869;52.698;6.210;2023-07-16T02:56:58;8.00;;;3.42;;
60016;SDS011;45869;52.698;6.210;2023-07-16T02:59:24;11.15;;;4.15;;
60016;SDS011;45869;52.698;6.210;2023-07-16T03:01:51;9.93;;;4.20;;
60016;SDS011;45869;52.698;6.210;2023-07-16T03:04:17;10.00;;;4.10;;
60016;SDS011;45869;52.698;6.210;2023-07-16T03:06:43;14.10;;;6.78;;
60016;SDS011;45869;52.698;6.210;2023-07-16T03:09:09;11.05;;;4.63;;
60016;SDS011;45869;52.698;6.210;2023-07-16T03:11:38;9.07;;;3.65;;
60016;SDS011;45869;52.698;6.210;2023-07-16T03:14:04;10.60;;;4.85;;
60016;SDS011;45869;52.698;6.210;2023-07-16T03:16:30;9.77;;;4.25;;
60016;SDS011;45869;52.698;6.210;2023-07-16T03:18:56;11.50;;;3.85;;
60016;SDS011;45869;52.698;6.210;2023-07-16T03:21:22;10.13;;;3.80;;
60016;SDS011;45869;52.698;6.210;2023-07-16T03:23:48;7.45;;;3.30;;
60016;SDS011;45869;52.698;6.210;2023-07-16T03:26:14;8.18;;;3.60;;
60016;SDS011;45869;52.698;6.210;2023-07-16T03:28:40;7.03;;;3.15;;
60016;SDS011;45869;52.698;6.210;2023-07-16T03:31:06;8.10;;;3.60;;
60016;SDS011;45869;52.698;6.210;2023-07-16T03:33:32;9.50;;;3.22;;
60016;SDS011;45869;52.698;6.210;2023-07-16T03:35:58;8.35;;;3.55;;
60016;SDS011;45869;52.698;6.210;2023-07-16T03:38:24;8.30;;;3.58;;
60016;SDS011;45869;52.698;6.210;2023-07-16T03:40:50;10.40;;;3.90;;
60016;SDS011;45869;52.698;6.210;2023-07-16T03:43:20;9.82;;;3.60;;
60016;SDS011;45869;52.698;6.210;2023-07-16T03:45:46;9.10;;;3.72;;
60016;SDS011;45869;52.698;6.210;2023-07-16T03:48:12;8.05;;;3.30;;
60016;SDS011;45869;52.698;6.210;2023-07-16T03:50:40;10.55;;;3.65;;
60016;SDS011;45869;52.698;6.210;2023-07-16T03:53:07;7.10;;;3.28;;
60016;SDS011;45869;52.698;6.210;2023-07-16T03:55:33;8.40;;;3.55;;
60016;SDS011;45869;52.698;6.210;2023-07-16T03:58:00;9.05;;;3.72;;
60016;SDS011;45869;52.698;6.210;2023-07-16T04:00:26;9.05;;;3.60;;
60016;SDS011;45869;52.698;6.210;2023-07-16T04:02:52;9.02;;;3.88;;
60016;SDS011;45869;52.698;6.210;2023-07-16T04:05:19;13.63;;;4.30;;
60016;SDS011;45869;52.698;6.210;2023-07-16T04:07:45;10.20;;;4.00;;
60016;SDS011;45869;52.698;6.210;2023-07-16T04:10:11;10.52;;;3.70;;
60016;SDS011;45869;52.698;6.210;2023-07-16T04:12:37;9.88;;;4.13;;
60016;SDS011;45869;52.698;6.210;2023-07-16T04:15:06;8.02;;;3.90;;
60016;SDS011;45869;52.698;6.210;2023-07-16T04:17:32;10.50;;;3.70;;
60016;SDS011;45869;52.698;6.210;2023-07-16T04:19:58;10.45;;;3.70;;
60016;SDS011;45869;52.698;6.210;2023-07-16T04:22:24;7.50;;;3.17;;
60016;SDS011;45869;52.698;6.210;2023-07-16T04:24:50;9.15;;;3.47;;
60016;SDS011;45869;52.698;6.210;2023-07-16T04:27:16;8.95;;;3.80;;
60016;SDS011;45869;52.698;6.210;2023-07-16T04:29:43;8.65;;;3.33;;
60016;SDS011;45869;52.698;6.210;2023-07-16T04:32:09;10.15;;;3.40;;
60016;SDS011;45869;52.698;6.210;2023-07-16T04:34:35;7.72;;;3.30;;
60016;SDS011;45869;52.698;6.210;2023-07-16T04:37:01;12.55;;;3.28;;
60016;SDS011;45869;52.698;6.210;2023-07-16T04:39:28;8.45;;;3.40;;
60016;SDS011;45869;52.698;6.210;2023-07-16T04:41:54;9.18;;;3.60;;
60016;SDS011;45869;52.698;6.210;2023-07-16T04:44:20;6.68;;;3.30;;
60016;SDS011;45869;52.698;6.210;2023-07-16T04:46:46;12.80;;;3.30;;
60016;SDS011;45869;52.698;6.210;2023-07-16T04:49:12;7.13;;;3.00;;
60016;SDS011;45869;52.698;6.210;2023-07-16T04:51:40;10.23;;;3.30;;
60016;SDS011;45869;52.698;6.210;2023-07-16T04:54:06;8.27;;;2.85;;
60016;SDS011;45869;52.698;6.210;2023-07-16T04:56:33;7.70;;;3.00;;
60016;SDS011;45869;52.698;6.210;2023-07-16T04:58:59;6.90;;;2.95;;
60016;SDS011;45869;52.698;6.210;2023-07-16T05:01:25;6.53;;;2.70;;
60016;SDS011;45869;52.698;6.210;2023-07-16T05:03:52;4.85;;;2.50;;
60016;SDS011;45869;52.698;6.210;2023-07-16T05:06:18;6.90;;;2.63;;
60016;SDS011;45869;52.698;6.210;2023-07-16T05:08:44;6.07;;;2.60;;
60016;SDS011;45869;52.698;6.210;2023-07-16T05:11:10;7.97;;;2.60;;
60016;SDS011;45869;52.698;6.210;2023-07-16T05:13:36;8.80;;;2.60;;
60016;SDS011;45869;52.698;6.210;2023-07-16T05:16:02;5.88;;;2.65;;
60016;SDS011;45869;52.698;6.210;2023-07-16T05:18:28;7.80;;;2.40;;
60016;SDS011;45869;52.698;6.210;2023-07-16T05:20:54;6.05;;;2.45;;
60016;SDS011;45869;52.698;6.210;2023-07-16T05:23:20;7.80;;;2.70;;
60016;SDS011;45869;52.698;6.210;2023-07-16T05:25:46;6.95;;;2.40;;
60016;SDS011;45869;52.698;6.210;2023-07-16T05:28:13;5.00;;;2.35;;
60016;SDS011;45869;52.698;6.210;2023-07-16T05:30:39;7.20;;;2.70;;
60016;SDS011;45869;52.698;6.210;2023-07-16T05:33:05;7.75;;;2.40;;
60016;SDS011;45869;52.698;6.210;2023-07-16T05:35:31;6.55;;;2.55;;
60016;SDS011;45869;52.698;6.210;2023-07-16T05:37:57;6.28;;;2.72;;
60016;SDS011;45869;52.698;6.210;2023-07-16T05:40:23;6.57;;;2.83;;
60016;SDS011;45869;52.698;6.210;2023-07-16T05:42:49;11.48;;;3.03;;
60016;SDS011;45869;52.698;6.210;2023-07-16T05:45:15;6.18;;;2.50;;
60016;SDS011;45869;52.698;6.210;2023-07-16T05:47:42;9.23;;;2.92;;
60016;SDS011;45869;52.698;6.210;2023-07-16T05:50:08;7.43;;;2.75;;
60016;SDS011;45869;52.698;6.210;2023-07-16T05:52:34;6.18;;;2.78;;
60016;SDS011;45869;52.698;6.210;2023-07-16T05:55:00;7.15;;;3.17;;
60016;SDS011;45869;52.698;6.210;2023-07-16T05:57:26;8.80;;;2.65;;
60016;SDS011;45869;52.698;6.210;2023-07-16T05:59:52;6.57;;;2.95;;
60016;SDS011;45869;52.698;6.210;2023-07-16T06:02:18;8.00;;;3.10;;
60016;SDS011;45869;52.698;6.210;2023-07-16T06:04:44;9.05;;;3.60;;
60016;SDS011;45869;52.698;6.210;2023-07-16T06:07:10;5.75;;;3.30;;
60016;SDS011;45869;52.698;6.210;2023-07-16T06:09:36;6.88;;;3.22;;
60016;SDS011;45869;52.698;6.210;2023-07-16T06:12:02;8.00;;;3.35;;
60016;SDS011;45869;52.698;6.210;2023-07-16T06:14:28;9.00;;;3.30;;
60016;SDS011;45869;52.698;6.210;2023-07-16T06:16:54;8.68;;;3.10;;
60016;SDS011;45869;52.698;6.210;2023-07-16T06:19:20;7.78;;;3.33;;
60016;SDS011;45869;52.698;6.210;2023-07-16T06:21:46;7.82;;;3.20;;
60016;SDS011;45869;52.698;6.210;2023-07-16T06:24:12;7.65;;;3.15;;
60016;SDS011;45869;52.698;6.210;2023-07-16T06:26:38;8.93;;;3.67;;
60016;SDS011;45869;52.698;6.210;2023-07-16T06:29:04;8.95;;;3.50;;
60016;SDS011;45869;52.698;6.210;2023-07-16T06:31:30;10.50;;;3.20;;
60016;SDS011;45869;52.698;6.210;2023-07-16T06:33:57;9.10;;;3.67;;
60016;SDS011;45869;52.698;6.210;2023-07-16T06:36:23;6.70;;;3.40;;
60016;SDS011;45869;52.698;6.210;2023-07-16T06:38:49;6.50;;;3.17;;
60016;SDS011;45869;52.698;6.210;2023-07-16T06:41:18;6.50;;;3.63;;
60016;SDS011;45869;52.698;6.210;2023-07-16T06:43:44;6.10;;;3.30;;
60016;SDS011;45869;52.698;6.210;2023-07-16T06:46:10;7.18;;;2.92;;
60016;SDS011;45869;52.698;6.210;2023-07-16T06:48:36;6.43;;;3.38;;
60016;SDS011;45869;52.698;6.210;2023-07-16T06:51:02;6.13;;;2.90;;
60016;SDS011;45869;52.698;6.210;2023-07-16T06:53:28;6.32;;;3.45;;
60016;SDS011;45869;52.698;6.210;2023-07-16T06:55:54;7.75;;;3.30;;
60016;SDS011;45869;52.698;6.210;2023-07-16T06:58:20;7.28;;;3.20;;
60016;SDS011;45869;52.698;6.210;2023-07-16T07:00:49;7.07;;;3.40;;
60016;SDS011;45869;52.698;6.210;2023-07-16T07:03:15;5.97;;;3.35;;
60016;SDS011;45869;52.698;6.210;2023-07-16T07:05:49;8.93;;;3.38;;
60016;SDS011;45869;52.698;6.210;2023-07-16T07:08:15;7.03;;;3.70;;
60016;SDS011;45869;52.698;6.210;2023-07-16T07:10:41;6.40;;;3.10;;
60016;SDS011;45869;52.698;6.210;2023-07-16T07:13:07;6.60;;;3.38;;
60016;SDS011;45869;52.698;6.210;2023-07-16T07:15:33;5.82;;;2.92;;
60016;SDS011;45869;52.698;6.210;2023-07-16T07:17:59;10.68;;;3.40;;
60016;SDS011;45869;52.698;6.210;2023-07-16T07:20:25;7.38;;;2.92;;
60016;SDS011;45869;52.698;6.210;2023-07-16T07:22:51;6.25;;;2.80;;
60016;SDS011;45869;52.698;6.210;2023-07-16T07:25:17;5.30;;;2.83;;
60016;SDS011;45869;52.698;6.210;2023-07-16T07:27:43;6.55;;;3.00;;
60016;SDS011;45869;52.698;6.210;2023-07-16T07:30:09;7.60;;;2.88;;
60016;SDS011;45869;52.698;6.210;2023-07-16T07:32:36;7.35;;;2.92;;
60016;SDS011;45869;52.698;6.210;2023-07-16T07:35:04;8.60;;;3.13;;
60016;SDS011;45869;52.698;6.210;2023-07-16T07:37:31;6.68;;;2.80;;
60016;SDS011;45869;52.698;6.210;2023-07-16T07:39:58;9.98;;;2.97;;
60016;SDS011;45869;52.698;6.210;2023-07-16T07:42:24;6.93;;;2.85;;
60016;SDS011;45869;52.698;6.210;2023-07-16T07:44:52;6.22;;;3.00;;
60016;SDS011;45869;52.698;6.210;2023-07-16T07:47:21;8.95;;;3.03;;
60016;SDS011;45869;52.698;6.210;2023-07-16T07:49:47;7.65;;;3.00;;
60016;SDS011;45869;52.698;6.210;2023-07-16T07:52:13;7.68;;;3.00;;
60016;SDS011;45869;52.698;6.210;2023-07-16T07:54:42;5.88;;;2.70;;
60016;SDS011;45869;52.698;6.210;2023-07-16T07:57:08;7.88;;;3.20;;
60016;SDS011;45869;52.698;6.210;2023-07-16T07:59:34;9.98;;;2.97;;
60016;SDS011;45869;52.698;6.210;2023-07-16T08:02:00;7.35;;;2.72;;
60016;SDS011;45869;52.698;6.210;2023-07-16T08:04:32;7.05;;;2.85;;
60016;SDS011;45869;52.698;6.210;2023-07-16T08:06:58;7.53;;;3.03;;
60016;SDS011;45869;52.698;6.210;2023-07-16T08:09:25;9.05;;;3.20;;
60016;SDS011;45869;52.698;6.210;2023-07-16T08:11:52;7.95;;;2.83;;
60016;SDS011;45869;52.698;6.210;2023-07-16T08:14:18;9.68;;;3.45;;
60016;SDS011;45869;52.698;6.210;2023-07-16T08:16:44;6.38;;;2.50;;
60016;SDS011;45869;52.698;6.210;2023-07-16T08:19:10;8.70;;;3.45;;
60016;SDS011;45869;52.698;6.210;2023-07-16T08:21:36;6.68;;;2.88;;
60016;SDS011;45869;52.698;6.210;2023-07-16T08:24:04;8.18;;;3.05;;
60016;SDS011;45869;52.698;6.210;2023-07-16T08:26:30;7.60;;;2.85;;
60016;SDS011;45869;52.698;6.210;2023-07-16T08:28:59;6.35;;;2.85;;
60016;SDS011;45869;52.698;6.210;2023-07-16T08:31:26;6.07;;;3.05;;
60016;SDS011;45869;52.698;6.210;2023-07-16T08:33:53;7.40;;;2.88;;
60016;SDS011;45869;52.698;6.210;2023-07-16T08:36:19;5.97;;;2.60;;
60016;SDS011;45869;52.698;6.210;2023-07-16T08:38:45;7.97;;;2.85;;
60016;SDS011;45869;52.698;6.210;2023-07-16T08:41:11;6.40;;;2.72;;
60016;SDS011;45869;52.698;6.210;2023-07-16T08:43:37;6.95;;;2.67;;
60016;SDS011;45869;52.698;6.210;2023-07-16T08:46:05;4.90;;;2.60;;
60016;SDS011;45869;52.698;6.210;2023-07-16T08:48:31;8.75;;;3.08;;
60016;SDS011;45869;52.698;6.210;2023-07-16T08:50:57;7.80;;;2.72;;
60016;SDS011;45869;52.698;6.210;2023-07-16T08:53:24;7.55;;;2.97;;
60016;SDS011;45869;52.698;6.210;2023-07-16T08:55:50;8.15;;;2.72;;
60016;SDS011;45869;52.698;6.210;2023-07-16T08:58:16;7.47;;;2.70;;
60016;SDS011;45869;52.698;6.210;2023-07-16T09:00:43;11.48;;;2.38;;
60016;SDS011;45869;52.698;6.210;2023-07-16T09:03:11;6.60;;;2.63;;
60016;SDS011;45869;52.698;6.210;2023-07-16T09:05:38;8.15;;;2.80;;
60016;SDS011;45869;52.698;6.210;2023-07-16T09:08:05;7.03;;;2.60;;
60016;SDS011;45869;52.698;6.210;2023-07-16T09:10:31;6.82;;;2.53;;
60016;SDS011;45869;52.698;6.210;2023-07-16T09:12:58;5.20;;;2.60;;
60016;SDS011;45869;52.698;6.210;2023-07-16T09:15:25;6.95;;;2.80;;
60016;SDS011;45869;52.698;6.210;2023-07-16T09:17:53;8.10;;;3.05;;
60016;SDS011;45869;52.698;6.210;2023-07-16T09:20:19;5.55;;;2.78;;
60016;SDS011;45869;52.698;6.210;2023-07-16T09:22:47;6.75;;;3.20;;
60016;SDS011;45869;52.698;6.210;2023-07-16T09:25:13;8.95;;;3.30;;
60016;SDS011;45869;52.698;6.210;2023-07-16T09:27:39;7.78;;;3.17;;
60016;SDS011;45869;52.698;6.210;2023-07-16T09:30:05;5.53;;;2.50;;
60016;SDS011;45869;52.698;6.210;2023-07-16T09:32:33;8.68;;;3.00;;
60016;SDS011;45869;52.698;6.210;2023-07-16T09:34:59;7.18;;;2.80;;
60016;SDS011;45869;52.698;6.210;2023-07-16T09:37:25;11.60;;;3.17;;
60016;SDS011;45869;52.698;6.210;2023-07-16T09:39:51;8.00;;;2.92;;
60016;SDS011;45869;52.698;6.210;2023-07-16T09:42:18;7.55;;;3.08;;
60016;SDS011;45869;52.698;6.210;2023-07-16T09:44:45;8.60;;;3.30;;
60016;SDS011;45869;52.698;6.210;2023-07-16T09:47:11;6.88;;;2.83;;
60016;SDS011;45869;52.698;6.210;2023-07-16T09:49:37;7.07;;;2.95;;
60016;SDS011;45869;52.698;6.210;2023-07-16T09:52:03;5.18;;;2.60;;
60016;SDS011;45869;52.698;6.210;2023-07-16T09:54:31;5.30;;;2.58;;
60016;SDS011;45869;52.698;6.210;2023-07-16T09:56:58;6.85;;;2.40;;
60016;SDS011;45869;52.698;6.210;2023-07-16T09:59:27;6.88;;;3.22;;
60016;SDS011;45869;52.698;6.210;2023-07-16T10:01:54;7.28;;;2.80;;
60016;SDS011;45869;52.698;6.210;2023-07-16T10:04:20;5.75;;;2.90;;
60016;SDS011;45869;52.698;6.210;2023-07-16T10:09:34;6.90;;;3.00;;
60016;SDS011;45869;52.698;6.210;2023-07-16T10:14:40;6.90;;;2.90;;
60016;SDS011;45869;52.698;6.210;2023-07-16T10:17:06;6.72;;;2.90;;
60016;SDS011;45869;52.698;6.210;2023-07-16T10:22:17;7.38;;;2.70;;
60016;SDS011;45869;52.698;6.210;2023-07-16T10:24:50;4.93;;;2.65;;
60016;SDS011;45869;52.698;6.210;2023-07-16T10:27:25;6.93;;;3.22;;
60016;SDS011;45869;52.698;6.210;2023-07-16T10:29:51;6.07;;;2.45;;
60016;SDS011;45869;52.698;6.210;2023-07-16T10:32:19;6.38;;;2.50;;
60016;SDS011;45869;52.698;6.210;2023-07-16T10:34:46;5.97;;;2.65;;
60016;SDS011;45869;52.698;6.210;2023-07-16T10:37:12;5.35;;;2.47;;
60016;SDS011;45869;52.698;6.210;2023-07-16T10:39:45;8.27;;;3.20;;
60016;SDS011;45869;52.698;6.210;2023-07-16T10:42:12;6.22;;;2.92;;
60016;SDS011;45869;52.698;6.210;2023-07-16T10:44:38;7.38;;;2.90;;
60016;SDS011;45869;52.698;6.210;2023-07-16T10:47:05;7.25;;;3.20;;
60016;SDS011;45869;52.698;6.210;2023-07-16T10:49:31;7.70;;;2.75;;
60016;SDS011;45869;52.698;6.210;2023-07-16T10:51:59;6.57;;;3.30;;
60016;SDS011;45869;52.698;6.210;2023-07-16T10:54:25;6.50;;;3.38;;
60016;SDS011;45869;52.698;6.210;2023-07-16T10:56:51;6.20;;;2.85;;
60016;SDS011;45869;52.698;6.210;2023-07-16T10:59:18;7.80;;;2.90;;
60016;SDS011;45869;52.698;6.210;2023-07-16T11:01:44;6.82;;;2.97;;
60016;SDS011;45869;52.698;6.210;2023-07-16T11:04:14;4.85;;;2.70;;
60016;SDS011;45869;52.698;6.210;2023-07-16T11:06:40;5.70;;;2.72;;
60016;SDS011;45869;52.698;6.210;2023-07-16T11:09:07;7.55;;;2.90;;
60016;SDS011;45869;52.698;6.210;2023-07-16T11:11:33;7.50;;;3.53;;
60016;SDS011;45869;52.698;6.210;2023-07-16T11:13:59;5.43;;;2.92;;
60016;SDS011;45869;52.698;6.210;2023-07-16T11:16:25;8.63;;;3.20;;
60016;SDS011;45869;52.698;6.210;2023-07-16T11:18:51;4.97;;;2.78;;
60016;SDS011;45869;52.698;6.210;2023-07-16T11:21:20;6.53;;;2.97;;
60016;SDS011;45869;52.698;6.210;2023-07-16T11:23:47;8.82;;;3.75;;
60016;SDS011;45869;52.698;6.210;2023-07-16T11:26:16;5.20;;;2.80;;
60016;SDS011;45869;52.698;6.210;2023-07-16T11:28:42;5.70;;;3.05;;
60016;SDS011;45869;52.698;6.210;2023-07-16T11:31:15;5.43;;;2.63;;
60016;SDS011;45869;52.698;6.210;2023-07-16T11:33:42;6.07;;;3.15;;
60016;SDS011;45869;52.698;6.210;2023-07-16T11:36:08;6.95;;;2.65;;
60016;SDS011;45869;52.698;6.210;2023-07-16T11:38:38;6.07;;;2.70;;
60016;SDS011;45869;52.698;6.210;2023-07-16T11:41:04;6.28;;;2.78;;
60016;SDS011;45869;52.698;6.210;2023-07-16T11:43:36;8.50;;;3.08;;
60016;SDS011;45869;52.698;6.210;2023-07-16T11:46:03;5.15;;;2.63;;
60016;SDS011;45869;52.698;6.210;2023-07-16T11:48:29;5.50;;;2.67;;
60016;SDS011;45869;52.698;6.210;2023-07-16T11:50:55;6.60;;;2.97;;
60016;SDS011;45869;52.698;6.210;2023-07-16T11:53:21;7.25;;;2.75;;
60016;SDS011;45869;52.698;6.210;2023-07-16T11:55:47;5.30;;;2.88;;
60016;SDS011;45869;52.698;6.210;2023-07-16T11:58:13;6.05;;;2.83;;
60016;SDS011;45869;52.698;6.210;2023-07-16T12:00:39;5.32;;;2.80;;
60016;SDS011;45869;52.698;6.210;2023-07-16T12:03:05;6.90;;;2.72;;
60016;SDS011;45869;52.698;6.210;2023-07-16T12:05:31;7.95;;;3.15;;
60016;SDS011;45869;52.698;6.210;2023-07-16T12:07:57;7.60;;;3.25;;
60016;SDS011;45869;52.698;6.210;2023-07-16T12:10:28;6.03;;;2.72;;
60016;SDS011;45869;52.698;6.210;2023-07-16T12:12:54;5.50;;;2.47;;
60016;SDS011;45869;52.698;6.210;2023-07-16T12:15:21;7.00;;;3.20;;
60016;SDS011;45869;52.698;6.210;2023-07-16T12:17:58;6.47;;;3.13;;
60016;SDS011;45869;52.698;6.210;2023-07-16T12:20:24;7.18;;;3.13;;
60016;SDS011;45869;52.698;6.210;2023-07-16T12:22:53;6.07;;;3.10;;
60016;SDS011;45869;52.698;6.210;2023-07-16T12:25:31;6.88;;;3.00;;
60016;SDS011;45869;52.698;6.210;2023-07-16T12:27:57;5.43;;;2.50;;
60016;SDS011;45869;52.698;6.210;2023-07-16T12:30:24;5.53;;;2.75;;
60016;SDS011;45869;52.698;6.210;2023-07-16T12:32:50;7.07;;;2.55;;
60016;SDS011;45869;52.698;6.210;2023-07-16T12:35:16;5.68;;;2.58;;
60016;SDS011;45869;52.698;6.210;2023-07-16T12:37:42;5.10;;;2.70;;
60016;SDS011;45869;52.698;6.210;2023-07-16T12:40:08;7.32;;;2.40;;
60016;SDS011;45869;52.698;6.210;2023-07-16T12:42:34;4.03;;;1.90;;
60016;SDS011;45869;52.698;6.210;2023-07-16T12:45:01;7.70;;;2.20;;
60016;SDS011;45869;52.698;6.210;2023-07-16T12:47:27;4.35;;;1.77;;
60016;SDS011;45869;52.698;6.210;2023-07-16T12:49:53;3.47;;;1.85;;
60016;SDS011;45869;52.698;6.210;2023-07-16T12:52:19;3.72;;;1.67;;
60016;SDS011;45869;52.698;6.210;2023-07-16T12:54:45;3.88;;;2.00;;
60016;SDS011;45869;52.698;6.210;2023-07-16T12:57:11;4.25;;;1.75;;
60016;SDS011;45869;52.698;6.210;2023-07-16T12:59:37;4.10;;;1.98;;
60016;SDS011;45869;52.698;6.210;2023-07-16T13:02:03;4.88;;;1.90;;
60016;SDS011;45869;52.698;6.210;2023-07-16T13:04:30;4.60;;;2.00;;
60016;SDS011;45869;52.698;6.210;2023-07-16T13:06:57;3.80;;;2.10;;
60016;SDS011;45869;52.698;6.210;2023-07-16T13:09:25;5.75;;;2.00;;
60016;SDS011;45869;52.698;6.210;2023-07-16T13:11:51;3.75;;;1.67;;
60016;SDS011;45869;52.698;6.210;2023-07-16T13:14:20;4.00;;;1.60;;
60016;SDS011;45869;52.698;6.210;2023-07-16T13:16:46;6.95;;;1.98;;
60016;SDS011;45869;52.698;6.210;2023-07-16T13:19:12;4.93;;;1.50;;
60016;SDS011;45869;52.698;6.210;2023-07-16T13:21:38;5.65;;;1.65;;
60016;SDS011;45869;52.698;6.210;2023-07-16T13:24:04;3.55;;;1.67;;
60016;SDS011;45869;52.698;6.210;2023-07-16T13:26:30;4.93;;;1.50;;
60016;SDS011;45869;52.698;6.210;2023-07-16T13:28:56;4.00;;;1.60;;
60016;SDS011;45869;52.698;6.210;2023-07-16T13:31:23;7.85;;;1.75;;
60016;SDS011;45869;52.698;6.210;2023-07-16T13:33:49;4.30;;;1.42;;
60016;SDS011;45869;52.698;6.210;2023-07-16T13:36:15;4.10;;;1.35;;
60016;SDS011;45869;52.698;6.210;2023-07-16T13:38:41;4.45;;;1.20;;
60016;SDS011;45869;52.698;6.210;2023-07-16T13:41:13;3.05;;;1.33;;
60016;SDS011;45869;52.698;6.210;2023-07-16T13:43:39;4.43;;;1.23;;
60016;SDS011;45869;52.698;6.210;2023-07-16T13:46:05;4.22;;;1.05;;
60016;SDS011;45869;52.698;6.210;2023-07-16T13:54:28;3.22;;;0.80;;
60016;SDS011;45869;52.698;6.210;2023-07-16T13:56:55;2.63;;;0.90;;
60016;SDS011;45869;52.698;6.210;2023-07-16T13:59:24;4.93;;;0.98;;
60016;SDS011;45869;52.698;6.210;2023-07-16T14:01:59;5.85;;;1.30;;
60016;SDS011;45869;52.698;6.210;2023-07-16T14:04:26;4.57;;;1.38;;
60016;SDS011;45869;52.698;6.210;2023-07-16T14:06:52;4.20;;;1.15;;
60016;SDS011;45869;52.698;6.210;2023-07-16T14:09:18;3.95;;;1.20;;
60016;SDS011;45869;52.698;6.210;2023-07-16T14:11:44;4.95;;;1.38;;
60016;SDS011;45869;52.698;6.210;2023-07-16T14:14:13;4.85;;;1.38;;
60016;SDS011;45869;52.698;6.210;2023-07-16T14:16:39;4.47;;;1.52;;
60016;SDS011;45869;52.698;6.210;2023-07-16T14:19:05;3.63;;;1.52;;
60016;SDS011;45869;52.698;6.210;2023-07-16T14:21:37;4.45;;;1.52;;
60016;SDS011;45869;52.698;6.210;2023-07-16T14:24:03;5.75;;;1.88;;
60016;SDS011;45869;52.698;6.210;2023-07-16T14:26:29;5.63;;;1.60;;
60016;SDS011;45869;52.698;6.210;2023-07-16T14:28:55;3.33;;;1.25;;
60016;SDS011;45869;52.698;6.210;2023-07-16T14:31:22;4.25;;;1.60;;
60016;SDS011;45869;52.698;6.210;2023-07-16T14:33:48;4.22;;;1.60;;
60016;SDS011;45869;52.698;6.210;2023-07-16T14:36:14;4.47;;;1.42;;
60016;SDS011;45869;52.698;6.210;2023-07-16T14:38:40;4.25;;;1.70;;
60016;SDS011;45869;52.698;6.210;2023-07-16T14:41:06;4.30;;;1.67;;
60016;SDS011;45869;52.698;6.210;2023-07-16T14:43:33;5.07;;;1.50;;
60016;SDS011;45869;52.698;6.210;2023-07-16T14:45:59;3.60;;;1.45;;
60016;SDS011;45869;52.698;6.210;2023-07-16T14:48:25;5.20;;;1.70;;
60016;SDS011;45869;52.698;6.210;2023-07-16T14:50:52;3.90;;;1.60;;
60016;SDS011;45869;52.698;6.210;2023-07-16T14:53:18;5.53;;;1.73;;
60016;SDS011;45869;52.698;6.210;2023-07-16T14:55:51;5.68;;;1.52;;
60016;SDS011;45869;52.698;6.210;2023-07-16T14:58:20;4.57;;;1.63;;
60016;SDS011;45869;52.698;6.210;2023-07-16T15:00:47;4.38;;;1.58;;
60016;SDS011;45869;52.698;6.210;2023-07-16T15:03:13;3.22;;;1.48;;